x

St. Augustine, Fl (sauf1) Weather Station

5:00am - Wed 26th Apr 2017 All times are EDT. -4 hours from GMT.

  • Wind
    3mph, 5mph gusts
  • Sea Temp 73°f
  • Air Temp 61°f
  • Sea Pressure 1011mb
  • St. Augustine, Fl
  • St. Augustine, Fl

More Historic Weather Station data

Upgrade to MSW Pro to gain access to the past 30 days of data for over 8000 Wavebouys and Weather Stations around the globe.

Join Pro

Comparision Forecast

View Surf forecast
   
Wed 04/26 5:00am 3 5 mph 1011mb 73f 61f
4:00am 3 6 mph 1011mb 73f 62f
3:00am 5 6 mph 1011.3mb 73f 64f
2:00am 8 10 mph 1011.4mb 73f 65f
1:00am 8 11 mph 1011.5mb 73f 67f
12:00am 8 10 mph 1011.2mb 74f 68f
Tue 04/25 11:00pm 9 11 mph 1011.1mb 74f 70f
10:00pm 7 10 mph 1010.4mb 74f 72f
9:00pm 7 10 mph 1009.5mb 74f 74f
8:00pm 20 22 mph 1008.6mb 74f 73f
7:00pm 20 21 mph 1008.2mb 74f 73f
6:00pm 8 10 mph 1008.1mb 74f 81f
5:00pm 13 16 mph 1008mb 74f 80f
4:00pm 10 13 mph 1008.4mb 74f 79f
3:00pm 6 9 mph 1009.1mb 74f 78f
2:00pm 10 14 mph 1009.8mb 74f 77f
1:00pm 11 14 mph 1010.4mb 73f 74f
12:00pm 9 13 mph 1010.7mb 73f 72f
11:00am 9 11 mph 1010.7mb 73f 71f
10:00am 7 10 mph 1010.3mb 72f 68f
9:00am 8 10 mph 1010mb 72f 64f
8:00am 10 14 mph 1009.7mb 73f 60f
7:00am 7 9 mph 1009.1mb 73f 57f
6:00am 7 8 mph 1008.5mb 73f 58f
5:00am 7 10 mph 1008mb 72f 58f
4:00am 7 11 mph 1007.8mb 73f 58f
3:00am 8 13 mph 1007.7mb 73f 59f
2:00am 8 10 mph 1008.1mb 73f 60f
1:00am 6 7 mph 1008.3mb 73f 61f
12:00am 8 10 mph 1008.2mb 73f 62f
Mon 04/24 11:00pm 7 9 mph 1007.9mb 74f 64f
10:00pm 7 11 mph 1007.5mb 74f 66f
9:00pm 9 14 mph 1006.9mb 74f 68f
8:00pm 8 14 mph 1006.2mb 74f 71f
7:00pm 10 16 mph 1005.7mb 75f 72f
6:00pm 14 17 mph 1005.2mb 75f 74f
5:00pm 16 22 mph 1005mb 75f 75f
4:00pm 16 20 mph 1005.2mb 75f 76f
3:00pm 17 22 mph 1005.6mb 75f 76f
2:00pm 10 15 mph 1005.8mb 75f 77f
1:00pm 14 16 mph 1006.9mb 75f 75f
12:00pm 11 17 mph 1007.5mb 75f 74f
11:00am 13 16 mph 1007.7mb 75f 73f
10:00am 10 15 mph 1007.4mb 74f 74f
9:00am 7 10 mph 1007.5mb 74f 71f
8:00am 7 8 mph 1007.3mb 74f 71f
7:00am 7 9 mph 1007.1mb 74f 69f
6:00am 6 7 mph 1007mb 75f 70f
5:00am 7 9 mph 1006.6mb 75f 70f
4:00am 6 7 mph 1007mb 75f 70f
3:00am 9 10 mph 1007.7mb 75f 71f
2:00am 9 13 mph 1008.4mb 76f 71f
1:00am 17 18 mph 1009mb 76f 73f
12:00am 15 17 mph 1009.4mb 76f 74f
Sun 04/23 11:00pm 24 26 mph 1009.5mb 76f 74f
10:00pm 23 25 mph 1009.7mb 77f 74f
9:00pm 24 26 mph 1009.1mb 77f 74f
8:00pm 21 23 mph 1008.7mb 77f 74f
7:00pm 21 23 mph 1008.5mb 77f 74f
6:00pm 21 23 mph 1008.6mb 77f 74f
5:00pm 20 22 mph 1009.3mb 77f 74f
4:00pm 18 20 mph 1009.9mb 77f 74f
3:00pm 13 15 mph 1010.7mb 77f 75f
2:00pm 13 16 mph 1011.4mb 77f 74f
1:00pm 13 14 mph 1012.3mb 76f 74f
12:00pm 9 10 mph 1012.9mb 76f 74f
11:00am 9 10 mph 1012.9mb 75f 74f
10:00am 7 8 mph 1012.9mb 75f 73f
9:00am  -  1 mph 1013mb 74f 77f
8:00am 5 6 mph 1012.9mb 74f 72f
7:00am 3
mph
1012.7mb 74f 70f
6:00am 6
mph
1012.4mb 74f 71f
5:00am 8 10 mph 1012.6mb 75f 71f
4:00am 8 10 mph 1012.7mb 75f 71f
3:00am 9 10 mph 1012.9mb 75f 72f
2:00am 5 7 mph 1013.6mb 75f 71f
1:00am 9 14 mph 1013.9mb 75f 73f
12:00am 20 22 mph 1013.3mb 76f 74f
Sat 04/22 11:00pm 21 24 mph 1013.4mb 76f 74f
10:00pm 24 28 mph 1013.1mb 77f 74f
9:00pm 25 28 mph 1012.6mb 77f 74f
8:00pm 22 24 mph 1013mb 77f 74f
7:00pm 20 23 mph 1013.1mb 77f 74f
6:00pm 20 22 mph 1013.4mb 77f 75f
5:00pm 18 21 mph 1013.6mb 77f 74f
4:00pm 18 20 mph 1013.9mb 77f 74f
3:00pm 17 20 mph 1014.8mb 77f 74f
2:00pm 14 15 mph 1015.6mb 76f 74f
1:00pm 13 14 mph 1016.4mb 76f 74f
12:00pm 10
mph
1016.9mb 76f 74f